createdAt,value
2022-08-03T00:00:48.197Z,100425.40
2022-08-03T00:06:04.419Z,100424.12
2022-08-03T00:11:06.621Z,100422.03
2022-08-03T00:16:08.170Z,100427.86
2022-08-03T00:21:09.549Z,100424.83
2022-08-03T00:26:10.722Z,100427.89
2022-08-03T00:31:13.670Z,100430.28
2022-08-03T00:36:16.056Z,100427.36
2022-08-03T00:41:17.224Z,100429.33
2022-08-03T00:46:21.715Z,100428.36
2022-08-03T00:51:23.425Z,100431.58
2022-08-03T00:56:25.863Z,100427.38
2022-08-03T01:01:27.101Z,100425.32
2022-08-03T01:06:45.240Z,100425.89
2022-08-03T01:11:59.769Z,100423.00
2022-08-03T01:17:16.599Z,100423.08
2022-08-03T01:22:36.333Z,100421.80
2022-08-03T01:27:54.026Z,100417.55
2022-08-03T01:33:01.971Z,100410.70
2022-08-03T01:38:11.238Z,100409.73
2022-08-03T01:44:28.093Z,100409.08
2022-08-03T01:48:41.471Z,100408.00
2022-08-03T01:53:44.597Z,100407.39
2022-08-03T01:58:49.176Z,100406.79
2022-08-03T02:04:00.431Z,100407.36
2022-08-03T02:09:04.910Z,100404.50
2022-08-03T02:14:07.384Z,100399.83
2022-08-03T02:19:10.387Z,100391.98
2022-08-03T02:24:11.941Z,100388.09
2022-08-03T02:29:17.929Z,100391.77
2022-08-03T02:34:21.529Z,100387.73
2022-08-03T02:39:25.509Z,100389.63
2022-08-03T02:44:27.771Z,100388.25
2022-08-03T02:49:41.359Z,100389.89
2022-08-03T02:54:54.222Z,100391.46
2022-08-03T02:59:56.976Z,100391.05
2022-08-03T03:05:55.047Z,100386.61
2022-08-03T03:10:22.446Z,100384.81
2022-08-03T03:15:30.325Z,100387.25
2022-08-03T03:20:34.856Z,100388.13
2022-08-03T03:25:37.540Z,100389.76
2022-08-03T03:30:38.762Z,100382.66
2022-08-03T03:35:42.389Z,100384.52
2022-08-03T03:40:43.928Z,100381.59
2022-08-03T03:45:46.630Z,100382.63
2022-08-03T03:50:49.126Z,100392.23
2022-08-03T03:55:58.937Z,100397.21
2022-08-03T04:01:04.058Z,100406.84
2022-08-03T04:06:23.997Z,100406.46
2022-08-03T04:11:31.839Z,100408.39
2022-08-03T04:16:43.184Z,100416.87
2022-08-03T04:21:50.248Z,100422.12
2022-08-03T04:26:53.936Z,100424.05
2022-08-03T04:31:58.306Z,100427.76
2022-08-03T04:37:04.890Z,100432.72
2022-08-03T04:42:09.178Z,100437.42
2022-08-03T04:47:10.706Z,100443.12
2022-08-03T04:52:12.274Z,100445.32
2022-08-03T04:57:21.971Z,100446.48
2022-08-03T05:02:23.979Z,100450.64
2022-08-03T05:07:25.454Z,100455.48
2022-08-03T05:12:32.032Z,100458.95
2022-08-03T05:17:33.919Z,100462.86
2022-08-03T05:22:35.125Z,100461.91
2022-08-03T05:27:36.305Z,100461.42
2022-08-03T05:32:37.434Z,100472.29
2022-08-03T05:37:38.578Z,100471.42
2022-08-03T05:42:56.925Z,100475.32
2022-08-03T05:47:59.298Z,100487.27
2022-08-03T05:53:00.467Z,100496.86
2022-08-03T05:58:03.157Z,100499.58
2022-08-03T06:03:04.676Z,100494.96
2022-08-03T06:08:05.856Z,100496.98
2022-08-03T06:13:07.024Z,100499.61
2022-08-03T06:18:08.231Z,100504.06
2022-08-03T06:23:15.942Z,100512.52
2022-08-03T06:28:52.813Z,100507.63
2022-08-03T06:34:30.136Z,100504.91
2022-08-03T06:39:01.313Z,100505.42
2022-08-03T06:44:04.463Z,100506.74
2022-08-03T06:49:07.157Z,100510.00
2022-08-03T06:54:08.385Z,100505.86
2022-08-03T06:59:09.566Z,100507.10
2022-08-03T07:04:30.653Z,100506.84
2022-08-03T07:09:31.992Z,100508.75
2022-08-03T07:14:33.131Z,100511.23
2022-08-03T07:19:35.540Z,100513.91
2022-08-03T07:24:37.809Z,100517.57
2022-08-03T07:29:38.948Z,100517.62
2022-08-03T07:34:40.119Z,100514.63
2022-08-03T07:39:41.748Z,100514.58
2022-08-03T07:44:43.946Z,100510.95
2022-08-03T07:49:45.557Z,100510.52
2022-08-03T07:54:46.752Z,100510.92
2022-08-03T07:59:49.132Z,100508.18
2022-08-03T08:05:02.190Z,100505.52
2022-08-03T08:10:09.141Z,100506.67
2022-08-03T08:15:10.329Z,100510.58
2022-08-03T08:20:16.491Z,100507.58
2022-08-03T08:25:26.165Z,100506.70
2022-08-03T08:30:28.708Z,100508.62
2022-08-03T08:35:32.604Z,100505.97
2022-08-03T08:40:36.804Z,100510.47
2022-08-03T08:45:39.651Z,100509.92
2022-08-03T08:50:41.342Z,100510.83
2022-08-03T08:55:59.383Z,100503.70
2022-08-03T09:01:03.775Z,100507.77
2022-08-03T09:06:06.003Z,100507.67
2022-08-03T09:11:07.377Z,100506.98
2022-08-03T09:16:13.864Z,100506.92
2022-08-03T09:21:35.159Z,100509.89
2022-08-03T09:26:37.224Z,100507.55
2022-08-03T09:31:43.565Z,100505.64
2022-08-03T09:36:47.127Z,100506.32
2022-08-03T09:42:03.192Z,100504.65
2022-08-03T09:47:09.171Z,100500.22
2022-08-03T09:52:36.806Z,100495.70
2022-08-03T09:57:45.767Z,100496.36
2022-08-03T10:02:49.749Z,100494.22
2022-08-03T10:07:50.946Z,100497.19
2022-08-03T10:12:52.187Z,100494.38
2022-08-03T10:17:53.403Z,100487.87
2022-08-03T10:22:55.640Z,100489.37
2022-08-03T10:27:59.306Z,100485.33
2022-08-03T10:33:51.060Z,100484.02
2022-08-03T10:38:45.259Z,100483.66
2022-08-03T10:43:58.185Z,100477.84
2022-08-03T10:49:03.146Z,100476.81
2022-08-03T10:54:04.332Z,100478.73
2022-08-03T10:59:05.635Z,100477.98
2022-08-03T11:04:18.203Z,100474.95
2022-08-03T11:09:19.447Z,100470.91
2022-08-03T11:14:21.441Z,100467.84
2022-08-03T11:19:27.674Z,100464.48
2022-08-03T11:24:53.410Z,100466.27
2022-08-03T11:30:08.669Z,100465.22
2022-08-03T11:35:18.006Z,100464.41
2022-08-03T11:40:45.698Z,100468.75
2022-08-03T11:46:05.607Z,100465.02
2022-08-03T11:51:17.857Z,100461.84
2022-08-03T11:56:19.680Z,100458.66
2022-08-03T12:01:23.254Z,100458.91
2022-08-03T12:06:24.427Z,100454.10
2022-08-03T12:11:26.017Z,100452.45
2022-08-03T12:16:28.016Z,100443.59
2022-08-03T12:21:29.851Z,100445.45
2022-08-03T12:26:58.816Z,100435.36
2022-08-03T12:32:01.057Z,100432.94
2022-08-03T12:37:04.745Z,100440.71
2022-08-03T12:42:42.198Z,100438.40
2022-08-03T12:47:50.994Z,100437.35
2022-08-03T12:52:52.160Z,100429.20
2022-08-03T12:57:53.266Z,100424.48
2022-08-03T13:08:28.243Z,100420.55
2022-08-03T13:13:48.852Z,100425.75
2022-08-03T13:18:52.005Z,100419.58
2022-08-03T13:23:54.205Z,100419.86
2022-08-03T13:28:55.217Z,100408.67
2022-08-03T13:33:56.334Z,100409.08
2022-08-03T13:38:57.483Z,100406.25
2022-08-03T13:44:26.165Z,100401.04
2022-08-03T13:49:19.658Z,100403.25
2022-08-03T13:54:20.952Z,100394.09
2022-08-03T13:59:23.397Z,100395.10
2022-08-03T14:04:24.521Z,100391.62
2022-08-03T14:09:25.661Z,100389.29
2022-08-03T14:14:26.882Z,100384.50
2022-08-03T14:19:27.984Z,100383.41
2022-08-03T14:24:29.444Z,100375.54
2022-08-03T14:29:30.471Z,100368.94
2022-08-03T14:34:31.678Z,100365.67
2022-08-03T14:44:57.344Z,100355.09
2022-08-03T14:50:30.261Z,100352.01
2022-08-03T14:55:25.830Z,100351.29
2022-08-03T15:00:39.133Z,100350.32
2022-08-03T15:05:40.255Z,100354.45
2022-08-03T15:10:45.445Z,100352.30
2022-08-03T15:15:48.767Z,100351.00
2022-08-03T15:20:50.070Z,100349.20
2022-08-03T15:26:31.646Z,100343.75
2022-08-03T15:31:12.425Z,100341.57
2022-08-03T15:36:20.561Z,100337.75
2022-08-03T15:41:21.763Z,100335.77
2022-08-03T15:46:30.395Z,100333.63
2022-08-03T15:51:31.535Z,100334.92
2022-08-03T15:56:32.795Z,100332.61
2022-08-03T16:01:34.080Z,100325.52
2022-08-03T16:06:36.597Z,100325.44
2022-08-03T16:11:37.896Z,100324.49
2022-08-03T16:16:40.091Z,100319.88
2022-08-03T16:21:48.179Z,100321.36
2022-08-03T16:26:50.325Z,100320.98
2022-08-03T16:31:52.521Z,100319.25
2022-08-03T16:36:53.832Z,100316.89
2022-08-03T16:42:01.247Z,100319.36
2022-08-03T16:47:03.016Z,100314.70
2022-08-03T16:52:04.412Z,100317.50
2022-08-03T16:57:05.526Z,100319.61
2022-08-03T17:02:10.437Z,100315.96
2022-08-03T17:07:13.318Z,100318.80
2022-08-03T17:12:16.066Z,100326.89
2022-08-03T17:17:27.076Z,100328.34
2022-08-03T17:22:33.221Z,100328.47
2022-08-03T17:28:50.746Z,100332.91
2022-08-03T17:32:58.232Z,100340.70
2022-08-03T17:38:03.490Z,100338.20
2022-08-03T17:44:14.247Z,100340.25
2022-08-03T17:48:32.614Z,100341.31
2022-08-03T17:53:37.834Z,100346.73
2022-08-03T17:58:54.014Z,100350.17
2022-08-03T18:04:02.120Z,100351.66
2022-08-03T18:10:04.992Z,100359.46
2022-08-03T18:14:57.259Z,100357.85
2022-08-03T18:20:02.878Z,100363.02
2022-08-03T18:25:09.869Z,100370.42
2022-08-03T18:30:14.669Z,100369.45
2022-08-03T18:35:19.038Z,100374.57
2022-08-03T18:40:26.330Z,100377.36
2022-08-03T18:45:57.108Z,100381.55
2022-08-03T18:51:06.826Z,100386.19
2022-08-03T18:56:30.833Z,100385.02
2022-08-03T19:02:00.108Z,100381.25
2022-08-03T19:07:07.929Z,100388.23
2022-08-03T19:12:30.789Z,100386.61
2022-08-03T19:17:38.412Z,100380.23
2022-08-03T19:22:39.698Z,100379.01
2022-08-03T19:27:48.231Z,100380.89
2022-08-03T19:32:50.373Z,100386.88
2022-08-03T19:37:51.758Z,100385.63
2022-08-03T19:42:57.755Z,100383.97
2022-08-03T19:48:09.421Z,100388.63
2022-08-03T19:53:12.105Z,100387.63
2022-08-03T19:58:17.739Z,100388.38
2022-08-03T20:03:42.891Z,100394.69
2022-08-03T20:08:44.755Z,100396.83
2022-08-03T20:13:50.832Z,100400.55
2022-08-03T20:18:51.937Z,100397.59
2022-08-03T20:24:03.200Z,100398.08
2022-08-03T20:29:42.824Z,100398.13
2022-08-03T20:34:51.685Z,100402.40
2022-08-03T20:39:54.473Z,100401.05
2022-08-03T20:45:04.317Z,100397.66
2022-08-03T20:50:07.723Z,100395.14
2022-08-03T20:55:12.868Z,100404.05
2022-08-03T21:00:17.902Z,100403.73
2022-08-03T21:05:21.110Z,100410.29
2022-08-03T21:10:33.819Z,100408.41
2022-08-03T21:16:06.755Z,100412.10
2022-08-03T21:21:02.845Z,100416.15
2022-08-03T21:26:04.849Z,100415.89
2022-08-03T21:31:07.169Z,100418.38
2022-08-03T21:36:08.354Z,100415.98
2022-08-03T21:41:10.022Z,100420.48
2022-08-03T21:46:13.805Z,100421.13
2022-08-03T21:51:18.508Z,100417.42
2022-08-03T21:56:21.343Z,100415.02
2022-08-03T22:01:26.867Z,100413.55
2022-08-03T22:06:28.010Z,100408.92
2022-08-03T22:11:29.373Z,100412.88
2022-08-03T22:16:30.945Z,100411.96
2022-08-03T22:21:35.748Z,100415.17
2022-08-03T22:26:40.114Z,100416.56
2022-08-03T22:31:58.916Z,100416.41
2022-08-03T22:37:02.239Z,100418.50
2022-08-03T22:42:05.052Z,100423.44
2022-08-03T22:47:08.810Z,100425.31
2022-08-03T22:52:11.157Z,100430.77
2022-08-03T22:57:13.320Z,100428.66
2022-08-03T23:02:21.106Z,100425.55
2022-08-03T23:07:29.887Z,100417.30
2022-08-03T23:12:34.239Z,100417.77
2022-08-03T23:17:57.612Z,100418.52
2022-08-03T23:23:00.466Z,100417.36
2022-08-03T23:28:05.391Z,100412.30
2022-08-03T23:33:08.533Z,100413.95
2022-08-03T23:38:22.064Z,100417.04
2022-08-03T23:43:45.274Z,100420.91
2022-08-03T23:48:50.274Z,100419.20
2022-08-03T23:54:01.912Z,100419.77
2022-08-03T23:59:21.618Z,100423.20
